sensor_id;sensor_type;location;lat;lon;timestamp;pressure;altitude;pressure_sealevel;temperature;humidity
74466;BME280;62916;50.044;15.938;2023-07-24T00:00:20;98492.59;;;27.60;34.88
74466;BME280;62916;50.044;15.938;2023-07-24T00:02:51;98486.55;;;27.58;34.95
74466;BME280;62916;50.044;15.938;2023-07-24T00:05:25;98486.95;;;27.57;34.92
74466;BME280;62916;50.044;15.938;2023-07-24T00:07:56;98486.54;;;27.56;34.69
74466;BME280;62916;50.044;15.938;2023-07-24T00:10:27;98490.66;;;27.55;34.49
74466;BME280;62916;50.044;15.938;2023-07-24T00:12:58;98489.48;;;27.54;34.74
74466;BME280;62916;50.044;15.938;2023-07-24T00:15:28;98489.78;;;27.48;34.69
74466;BME280;62916;50.044;15.938;2023-07-24T00:17:59;98494.45;;;27.50;34.80
74466;BME280;62916;50.044;15.938;2023-07-24T00:20:30;98492.39;;;27.48;34.87
74466;BME280;62916;50.044;15.938;2023-07-24T00:23:01;98487.33;;;27.46;34.95
74466;BME280;62916;50.044;15.938;2023-07-24T00:25:32;98489.23;;;27.44;34.95
74466;BME280;62916;50.044;15.938;2023-07-24T00:28:03;98482.59;;;27.41;35.13
74466;BME280;62916;50.044;15.938;2023-07-24T00:30:34;98483.14;;;27.40;34.88
74466;BME280;62916;50.044;15.938;2023-07-24T00:33:05;98478.71;;;27.38;35.11
74466;BME280;62916;50.044;15.938;2023-07-24T00:35:35;98480.15;;;27.37;34.68
74466;BME280;62916;50.044;15.938;2023-07-24T00:38:06;98478.20;;;27.35;34.97
74466;BME280;62916;50.044;15.938;2023-07-24T00:40:37;98481.83;;;27.35;35.07
74466;BME280;62916;50.044;15.938;2023-07-24T00:43:08;98482.70;;;27.33;35.09
74466;BME280;62916;50.044;15.938;2023-07-24T00:45:39;98477.06;;;27.32;35.32
74466;BME280;62916;50.044;15.938;2023-07-24T00:48:10;98476.79;;;27.30;35.27
74466;BME280;62916;50.044;15.938;2023-07-24T00:50:42;98475.30;;;27.29;35.12
74466;BME280;62916;50.044;15.938;2023-07-24T00:53:15;98473.49;;;27.28;35.32
74466;BME280;62916;50.044;15.938;2023-07-24T00:55:47;98468.36;;;27.27;35.51
74466;BME280;62916;50.044;15.938;2023-07-24T00:58:18;98468.40;;;27.25;35.29
74466;BME280;62916;50.044;15.938;2023-07-24T01:00:49;98466.85;;;27.24;35.17
74466;BME280;62916;50.044;15.938;2023-07-24T01:03:22;98466.91;;;27.23;35.28
74466;BME280;62916;50.044;15.938;2023-07-24T01:05:53;98466.23;;;27.22;35.22
74466;BME280;62916;50.044;15.938;2023-07-24T01:08:25;98466.31;;;27.22;35.20
74466;BME280;62916;50.044;15.938;2023-07-24T01:10:59;98459.48;;;27.17;35.18
74466;BME280;62916;50.044;15.938;2023-07-24T01:13:41;98463.27;;;27.20;35.15
74466;BME280;62916;50.044;15.938;2023-07-24T01:16:17;98462.13;;;27.19;35.22
74466;BME280;62916;50.044;15.938;2023-07-24T01:18:50;98461.45;;;27.18;35.31
74466;BME280;62916;50.044;15.938;2023-07-24T01:21:29;98461.28;;;27.18;35.19
74466;BME280;62916;50.044;15.938;2023-07-24T01:24:14;98462.19;;;27.18;35.34
74466;BME280;62916;50.044;15.938;2023-07-24T01:26:51;98462.83;;;27.19;35.43
74466;BME280;62916;50.044;15.938;2023-07-24T01:29:22;98463.50;;;27.19;35.29
74466;BME280;62916;50.044;15.938;2023-07-24T01:31:52;98465.70;;;27.20;35.50
74466;BME280;62916;50.044;15.938;2023-07-24T01:34:23;98459.69;;;27.19;35.38
74466;BME280;62916;50.044;15.938;2023-07-24T01:36:54;98456.38;;;27.17;35.65
74466;BME280;62916;50.044;15.938;2023-07-24T01:39:25;98454.02;;;27.16;35.69
74466;BME280;62916;50.044;15.938;2023-07-24T01:41:57;98449.51;;;27.14;35.67
74466;BME280;62916;50.044;15.938;2023-07-24T01:44:28;98451.83;;;27.11;35.71
74466;BME280;62916;50.044;15.938;2023-07-24T01:46:59;98452.76;;;27.09;35.72
74466;BME280;62916;50.044;15.938;2023-07-24T01:49:30;98455.18;;;27.08;35.62
74466;BME280;62916;50.044;15.938;2023-07-24T01:52:00;98452.23;;;27.06;35.83
74466;BME280;62916;50.044;15.938;2023-07-24T01:54:31;98453.34;;;27.04;35.80
74466;BME280;62916;50.044;15.938;2023-07-24T01:57:02;98440.91;;;27.01;35.70
74466;BME280;62916;50.044;15.938;2023-07-24T01:59:33;98440.53;;;27.02;35.65
74466;BME280;62916;50.044;15.938;2023-07-24T02:02:04;98440.91;;;27.01;35.82
74466;BME280;62916;50.044;15.938;2023-07-24T02:04:36;98444.95;;;27.00;35.69
74466;BME280;62916;50.044;15.938;2023-07-24T02:07:07;98447.54;;;26.99;35.80
74466;BME280;62916;50.044;15.938;2023-07-24T02:09:37;98445.89;;;26.97;35.70
74466;BME280;62916;50.044;15.938;2023-07-24T02:12:09;98448.79;;;26.95;35.59
74466;BME280;62916;50.044;15.938;2023-07-24T02:14:40;98456.55;;;26.93;35.58
74466;BME280;62916;50.044;15.938;2023-07-24T02:17:11;98457.96;;;26.91;35.47
74466;BME280;62916;50.044;15.938;2023-07-24T02:19:41;98461.25;;;26.89;35.56
74466;BME280;62916;50.044;15.938;2023-07-24T02:22:12;98458.94;;;26.88;35.70
74466;BME280;62916;50.044;15.938;2023-07-24T02:24:43;98458.43;;;26.86;35.32
74466;BME280;62916;50.044;15.938;2023-07-24T02:27:24;98462.14;;;26.84;35.49
74466;BME280;62916;50.044;15.938;2023-07-24T02:29:55;98459.65;;;26.82;35.66
74466;BME280;62916;50.044;15.938;2023-07-24T02:32:26;98456.02;;;26.80;35.64
74466;BME280;62916;50.044;15.938;2023-07-24T02:34:56;98450.38;;;26.78;35.46
74466;BME280;62916;50.044;15.938;2023-07-24T02:37:27;98451.23;;;26.75;35.65
74466;BME280;62916;50.044;15.938;2023-07-24T02:39:58;98451.70;;;26.73;35.45
74466;BME280;62916;50.044;15.938;2023-07-24T02:42:29;98454.82;;;26.72;35.62
74466;BME280;62916;50.044;15.938;2023-07-24T02:44:59;98456.26;;;26.70;35.56
74466;BME280;62916;50.044;15.938;2023-07-24T02:47:30;98453.88;;;26.68;35.59
74466;BME280;62916;50.044;15.938;2023-07-24T02:50:01;98453.63;;;26.69;35.81
74466;BME280;62916;50.044;15.938;2023-07-24T02:52:32;98449.38;;;26.67;35.58
74466;BME280;62916;50.044;15.938;2023-07-24T02:55:03;98451.97;;;26.66;35.71
74466;BME280;62916;50.044;15.938;2023-07-24T02:57:34;98449.59;;;26.65;35.67
74466;BME280;62916;50.044;15.938;2023-07-24T03:00:07;98446.63;;;26.63;35.84
74466;BME280;62916;50.044;15.938;2023-07-24T03:02:39;98450.81;;;26.65;35.99
74466;BME280;62916;50.044;15.938;2023-07-24T03:05:10;98447.94;;;26.64;36.13
74466;BME280;62916;50.044;15.938;2023-07-24T03:07:41;98441.33;;;26.63;35.94
74466;BME280;62916;50.044;15.938;2023-07-24T03:10:12;98443.09;;;26.62;35.78
74466;BME280;62916;50.044;15.938;2023-07-24T03:12:43;98440.48;;;26.61;35.92
74466;BME280;62916;50.044;15.938;2023-07-24T03:15:14;98437.21;;;26.60;35.98
74466;BME280;62916;50.044;15.938;2023-07-24T03:17:45;98432.08;;;26.59;36.02
74466;BME280;62916;50.044;15.938;2023-07-24T03:20:18;98428.08;;;26.59;35.93
74466;BME280;62916;50.044;15.938;2023-07-24T03:22:49;98425.45;;;26.58;36.18
74466;BME280;62916;50.044;15.938;2023-07-24T03:25:20;98429.42;;;26.56;36.17
74466;BME280;62916;50.044;15.938;2023-07-24T03:27:51;98430.13;;;26.55;36.27
74466;BME280;62916;50.044;15.938;2023-07-24T03:30:21;98433.08;;;26.56;36.50
74466;BME280;62916;50.044;15.938;2023-07-24T03:32:53;98437.86;;;26.55;36.72
74466;BME280;62916;50.044;15.938;2023-07-24T03:35:24;98448.17;;;26.51;36.65
74466;BME280;62916;50.044;15.938;2023-07-24T03:37:55;98450.09;;;26.45;36.71
74466;BME280;62916;50.044;15.938;2023-07-24T03:40:26;98455.07;;;26.38;36.42
74466;BME280;62916;50.044;15.938;2023-07-24T03:42:56;98458.61;;;26.33;36.55
74466;BME280;62916;50.044;15.938;2023-07-24T03:45:27;98456.92;;;26.29;36.79
74466;BME280;62916;50.044;15.938;2023-07-24T03:47:58;98459.36;;;26.33;36.74
74466;BME280;62916;50.044;15.938;2023-07-24T03:50:30;98467.23;;;26.37;36.63
74466;BME280;62916;50.044;15.938;2023-07-24T03:53:01;98464.13;;;26.40;36.51
74466;BME280;62916;50.044;15.938;2023-07-24T03:55:31;98463.30;;;26.43;36.65
74466;BME280;62916;50.044;15.938;2023-07-24T03:58:02;98471.16;;;26.47;36.75
74466;BME280;62916;50.044;15.938;2023-07-24T04:00:33;98473.00;;;26.50;36.48
74466;BME280;62916;50.044;15.938;2023-07-24T04:03:04;98481.21;;;26.53;36.75
74466;BME280;62916;50.044;15.938;2023-07-24T04:05:36;98477.79;;;26.57;37.08
74466;BME280;62916;50.044;15.938;2023-07-24T04:08:07;98473.23;;;26.61;36.85
74466;BME280;62916;50.044;15.938;2023-07-24T04:10:38;98473.11;;;26.63;36.73
74466;BME280;62916;50.044;15.938;2023-07-24T04:13:08;98473.54;;;26.64;37.12
74466;BME280;62916;50.044;15.938;2023-07-24T04:15:39;98472.13;;;26.66;37.27
74466;BME280;62916;50.044;15.938;2023-07-24T04:18:10;98471.48;;;26.68;36.99
74466;BME280;62916;50.044;15.938;2023-07-24T04:20:41;98474.75;;;26.68;36.92
74466;BME280;62916;50.044;15.938;2023-07-24T04:23:11;98473.13;;;26.69;36.95
74466;BME280;62916;50.044;15.938;2023-07-24T04:25:42;98473.95;;;26.69;37.14
74466;BME280;62916;50.044;15.938;2023-07-24T04:28:13;98475.27;;;26.70;37.14
74466;BME280;62916;50.044;15.938;2023-07-24T04:30:44;98470.39;;;26.70;37.07
74466;BME280;62916;50.044;15.938;2023-07-24T04:33:15;98467.55;;;26.70;37.13
74466;BME280;62916;50.044;15.938;2023-07-24T04:35:49;98467.39;;;26.71;37.28
74466;BME280;62916;50.044;15.938;2023-07-24T04:38:20;98471.09;;;26.72;37.22
74466;BME280;62916;50.044;15.938;2023-07-24T04:40:51;98471.69;;;26.73;37.22
74466;BME280;62916;50.044;15.938;2023-07-24T04:43:21;98468.52;;;26.74;37.30
74466;BME280;62916;50.044;15.938;2023-07-24T04:45:52;98465.16;;;26.76;37.27
74466;BME280;62916;50.044;15.938;2023-07-24T04:48:23;98467.02;;;26.77;37.22
74466;BME280;62916;50.044;15.938;2023-07-24T04:50:56;98466.63;;;26.77;37.43
74466;BME280;62916;50.044;15.938;2023-07-24T04:53:27;98447.20;;;26.77;37.29
74466;BME280;62916;50.044;15.938;2023-07-24T04:55:58;98438.69;;;26.79;37.65
74466;BME280;62916;50.044;15.938;2023-07-24T04:58:29;98441.94;;;26.79;37.39
74466;BME280;62916;50.044;15.938;2023-07-24T05:01:03;98446.17;;;26.79;37.51
74466;BME280;62916;50.044;15.938;2023-07-24T05:03:35;98443.41;;;26.80;37.40
74466;BME280;62916;50.044;15.938;2023-07-24T05:06:05;98440.15;;;26.79;37.64
74466;BME280;62916;50.044;15.938;2023-07-24T05:08:37;98440.63;;;26.82;37.73
74466;BME280;62916;50.044;15.938;2023-07-24T05:11:08;98425.20;;;26.83;37.75
74466;BME280;62916;50.044;15.938;2023-07-24T05:13:38;98404.24;;;26.84;37.61
74466;BME280;62916;50.044;15.938;2023-07-24T05:16:09;98387.76;;;26.84;37.47
74466;BME280;62916;50.044;15.938;2023-07-24T05:18:40;98399.71;;;26.85;37.63
74466;BME280;62916;50.044;15.938;2023-07-24T05:21:11;98417.36;;;26.85;37.63
74466;BME280;62916;50.044;15.938;2023-07-24T05:23:42;98421.59;;;26.85;37.98
74466;BME280;62916;50.044;15.938;2023-07-24T05:26:13;98425.09;;;26.85;37.69
74466;BME280;62916;50.044;15.938;2023-07-24T05:28:44;98426.07;;;26.86;37.99
74466;BME280;62916;50.044;15.938;2023-07-24T05:31:15;98429.34;;;26.87;37.90
74466;BME280;62916;50.044;15.938;2023-07-24T05:33:46;98425.83;;;26.87;38.00
74466;BME280;62916;50.044;15.938;2023-07-24T05:36:17;98427.65;;;26.83;37.79
74466;BME280;62916;50.044;15.938;2023-07-24T05:38:48;98427.79;;;26.87;38.13
74466;BME280;62916;50.044;15.938;2023-07-24T05:41:19;98430.06;;;26.87;38.00
74466;BME280;62916;50.044;15.938;2023-07-24T05:43:50;98420.70;;;26.87;38.14
74466;BME280;62916;50.044;15.938;2023-07-24T05:46:20;98419.17;;;26.88;38.11
74466;BME280;62916;50.044;15.938;2023-07-24T05:48:52;98422.83;;;26.87;38.16
74466;BME280;62916;50.044;15.938;2023-07-24T05:51:23;98405.07;;;26.85;38.00
74466;BME280;62916;50.044;15.938;2023-07-24T05:53:54;98372.67;;;26.89;38.28
74466;BME280;62916;50.044;15.938;2023-07-24T05:56:24;98341.45;;;26.88;38.23
74466;BME280;62916;50.044;15.938;2023-07-24T05:58:56;98336.17;;;26.88;38.30
74466;BME280;62916;50.044;15.938;2023-07-24T06:01:27;98353.66;;;26.88;38.34
74466;BME280;62916;50.044;15.938;2023-07-24T06:03:57;98340.16;;;26.88;38.08
74466;BME280;62916;50.044;15.938;2023-07-24T06:06:28;98338.13;;;26.87;38.10
74466;BME280;62916;50.044;15.938;2023-07-24T06:09:00;98337.96;;;26.88;38.42
74466;BME280;62916;50.044;15.938;2023-07-24T06:11:30;98337.56;;;26.89;38.30
74466;BME280;62916;50.044;15.938;2023-07-24T06:14:01;98337.98;;;26.89;38.31
74466;BME280;62916;50.044;15.938;2023-07-24T06:16:32;98346.44;;;26.90;38.27
74466;BME280;62916;50.044;15.938;2023-07-24T06:19:03;98352.56;;;26.90;38.19
74466;BME280;62916;50.044;15.938;2023-07-24T06:21:34;98359.43;;;26.92;38.39
74466;BME280;62916;50.044;15.938;2023-07-24T06:24:05;98364.42;;;26.93;38.36
74466;BME280;62916;50.044;15.938;2023-07-24T06:26:41;98364.94;;;26.94;38.07
74466;BME280;62916;50.044;15.938;2023-07-24T06:29:12;98364.88;;;26.92;38.41
74466;BME280;62916;50.044;15.938;2023-07-24T06:31:44;98362.61;;;26.98;38.30
74466;BME280;62916;50.044;15.938;2023-07-24T06:34:15;98359.96;;;26.98;38.35
74466;BME280;62916;50.044;15.938;2023-07-24T06:36:45;98356.58;;;27.00;38.18
74466;BME280;62916;50.044;15.938;2023-07-24T06:39:16;98350.61;;;26.99;38.37
74466;BME280;62916;50.044;15.938;2023-07-24T06:41:47;98336.59;;;27.01;38.16
74466;BME280;62916;50.044;15.938;2023-07-24T06:44:18;98331.41;;;27.03;38.14
74466;BME280;62916;50.044;15.938;2023-07-24T06:46:49;98326.83;;;27.01;38.23
74466;BME280;62916;50.044;15.938;2023-07-24T06:49:20;98334.64;;;27.06;38.41
74466;BME280;62916;50.044;15.938;2023-07-24T06:51:51;98338.00;;;27.07;37.97
74466;BME280;62916;50.044;15.938;2023-07-24T06:54:21;98342.55;;;27.08;38.07
74466;BME280;62916;50.044;15.938;2023-07-24T06:56:52;98343.94;;;27.08;38.02
74466;BME280;62916;50.044;15.938;2023-07-24T06:59:23;98347.85;;;27.09;38.12
74466;BME280;62916;50.044;15.938;2023-07-24T07:01:54;98340.90;;;27.06;38.06
74466;BME280;62916;50.044;15.938;2023-07-24T07:04:25;98347.06;;;27.11;37.90
74466;BME280;62916;50.044;15.938;2023-07-24T07:06:56;98334.95;;;27.11;37.97
74466;BME280;62916;50.044;15.938;2023-07-24T07:09:27;98334.95;;;27.11;37.80
74466;BME280;62916;50.044;15.938;2023-07-24T07:11:58;98326.52;;;27.12;37.81
74466;BME280;62916;50.044;15.938;2023-07-24T07:14:29;98328.32;;;27.13;38.07
74466;BME280;62916;50.044;15.938;2023-07-24T07:17:00;98331.49;;;27.14;37.86
74466;BME280;62916;50.044;15.938;2023-07-24T07:19:31;98332.08;;;27.15;37.96
74466;BME280;62916;50.044;15.938;2023-07-24T07:22:02;98325.83;;;27.15;37.91
74466;BME280;62916;50.044;15.938;2023-07-24T07:24:33;98325.98;;;27.15;37.90
74466;BME280;62916;50.044;15.938;2023-07-24T07:27:04;98327.65;;;27.16;37.68
74466;BME280;62916;50.044;15.938;2023-07-24T07:29:35;98324.80;;;27.16;37.97
74466;BME280;62916;50.044;15.938;2023-07-24T07:32:08;98327.16;;;27.17;37.92
74466;BME280;62916;50.044;15.938;2023-07-24T07:34:39;98330.40;;;27.18;38.07
74466;BME280;62916;50.044;15.938;2023-07-24T07:37:10;98333.27;;;27.20;38.03
74466;BME280;62916;50.044;15.938;2023-07-24T07:39:41;98330.13;;;27.21;38.00
74466;BME280;62916;50.044;15.938;2023-07-24T07:42:12;98331.53;;;27.22;37.84
74466;BME280;62916;50.044;15.938;2023-07-24T07:44:47;98330.89;;;27.22;37.93
74466;BME280;62916;50.044;15.938;2023-07-24T07:47:18;98330.66;;;27.23;37.69
74466;BME280;62916;50.044;15.938;2023-07-24T07:49:49;98337.42;;;27.23;37.90
74466;BME280;62916;50.044;15.938;2023-07-24T07:52:20;98335.88;;;27.24;37.86
74466;BME280;62916;50.044;15.938;2023-07-24T07:54:51;98332.80;;;27.24;37.82
74466;BME280;62916;50.044;15.938;2023-07-24T07:57:22;98328.50;;;27.25;37.73
74466;BME280;62916;50.044;15.938;2023-07-24T07:59:52;98327.28;;;27.25;37.71
74466;BME280;62916;50.044;15.938;2023-07-24T08:02:23;98321.02;;;27.25;37.51
74466;BME280;62916;50.044;15.938;2023-07-24T08:04:54;98320.70;;;27.25;37.97
74466;BME280;62916;50.044;15.938;2023-07-24T08:07:25;98318.84;;;27.26;37.80
74466;BME280;62916;50.044;15.938;2023-07-24T08:09:56;98323.08;;;27.27;37.89
74466;BME280;62916;50.044;15.938;2023-07-24T08:12:27;98319.58;;;27.26;37.87
74466;BME280;62916;50.044;15.938;2023-07-24T08:14:58;98319.41;;;27.27;37.59
74466;BME280;62916;50.044;15.938;2023-07-24T08:17:28;98321.41;;;27.24;37.79
74466;BME280;62916;50.044;15.938;2023-07-24T08:20:00;98326.83;;;27.28;37.69
74466;BME280;62916;50.044;15.938;2023-07-24T08:22:31;98324.70;;;27.28;37.84
74466;BME280;62916;50.044;15.938;2023-07-24T08:25:02;98323.24;;;27.28;37.88
74466;BME280;62916;50.044;15.938;2023-07-24T08:27:33;98326.09;;;27.28;37.94
74466;BME280;62916;50.044;15.938;2023-07-24T08:30:23;98329.59;;;27.28;37.76
74466;BME280;62916;50.044;15.938;2023-07-24T08:32:54;98325.54;;;27.30;37.64
74466;BME280;62916;50.044;15.938;2023-07-24T08:35:26;98321.80;;;27.30;37.97
74466;BME280;62916;50.044;15.938;2023-07-24T08:37:57;98321.58;;;27.31;37.87
74466;BME280;62916;50.044;15.938;2023-07-24T08:40:28;98314.91;;;27.31;37.92
74466;BME280;62916;50.044;15.938;2023-07-24T08:42:59;98307.34;;;27.31;37.73
74466;BME280;62916;50.044;15.938;2023-07-24T08:45:32;98305.16;;;27.32;37.91
74466;BME280;62916;50.044;15.938;2023-07-24T08:48:03;98296.80;;;27.33;37.86
74466;BME280;62916;50.044;15.938;2023-07-24T08:50:34;98286.97;;;27.34;37.86
74466;BME280;62916;50.044;15.938;2023-07-24T08:53:05;98281.05;;;27.35;37.76
74466;BME280;62916;50.044;15.938;2023-07-24T08:55:36;98278.39;;;27.37;37.88
74466;BME280;62916;50.044;15.938;2023-07-24T08:58:08;98275.88;;;27.37;37.84
74466;BME280;62916;50.044;15.938;2023-07-24T09:00:39;98266.20;;;27.38;37.75
74466;BME280;62916;50.044;15.938;2023-07-24T09:03:10;98265.71;;;27.39;38.03
74466;BME280;62916;50.044;15.938;2023-07-24T09:05:41;98264.33;;;27.39;37.85
74466;BME280;62916;50.044;15.938;2023-07-24T09:08:13;98268.81;;;27.40;37.69
74466;BME280;62916;50.044;15.938;2023-07-24T09:10:44;98258.58;;;27.40;37.87
74466;BME280;62916;50.044;15.938;2023-07-24T09:13:20;98253.20;;;27.41;37.86
74466;BME280;62916;50.044;15.938;2023-07-24T09:15:51;98250.85;;;27.41;37.88
74466;BME280;62916;50.044;15.938;2023-07-24T09:18:23;98252.75;;;27.43;37.90
74466;BME280;62916;50.044;15.938;2023-07-24T09:20:54;98248.77;;;27.43;37.98
74466;BME280;62916;50.044;15.938;2023-07-24T09:23:29;98248.80;;;27.45;37.93
74466;BME280;62916;50.044;15.938;2023-07-24T09:26:04;98244.16;;;27.45;38.05
74466;BME280;62916;50.044;15.938;2023-07-24T09:28:35;98232.11;;;27.45;37.98
74466;BME280;62916;50.044;15.938;2023-07-24T09:31:07;98227.48;;;27.46;37.90
74466;BME280;62916;50.044;15.938;2023-07-24T09:33:39;98225.55;;;27.46;38.19
74466;BME280;62916;50.044;15.938;2023-07-24T09:36:10;98224.41;;;27.48;37.92
74466;BME280;62916;50.044;15.938;2023-07-24T09:38:41;98217.50;;;27.49;38.07
74466;BME280;62916;50.044;15.938;2023-07-24T09:41:13;98218.09;;;27.51;38.13
74466;BME280;62916;50.044;15.938;2023-07-24T09:43:45;98215.58;;;27.52;37.92
74466;BME280;62916;50.044;15.938;2023-07-24T09:46:16;98208.59;;;27.52;37.99
74466;BME280;62916;50.044;15.938;2023-07-24T09:48:47;98205.46;;;27.54;37.84
74466;BME280;62916;50.044;15.938;2023-07-24T09:51:38;98200.69;;;27.55;38.00
74466;BME280;62916;50.044;15.938;2023-07-24T09:54:17;98197.69;;;27.56;37.88
74466;BME280;62916;50.044;15.938;2023-07-24T09:56:52;98191.91;;;27.56;38.05
74466;BME280;62916;50.044;15.938;2023-07-24T09:59:44;98186.21;;;27.56;37.84
74466;BME280;62916;50.044;15.938;2023-07-24T10:02:15;98183.61;;;27.56;37.65
74466;BME280;62916;50.044;15.938;2023-07-24T10:04:48;98178.73;;;27.56;37.76
74466;BME280;62916;50.044;15.938;2023-07-24T10:07:19;98176.39;;;27.57;37.93
74466;BME280;62916;50.044;15.938;2023-07-24T10:09:52;98168.73;;;27.58;37.88
74466;BME280;62916;50.044;15.938;2023-07-24T10:12:24;98163.94;;;27.59;37.75
74466;BME280;62916;50.044;15.938;2023-07-24T10:14:57;98159.71;;;27.59;37.63
74466;BME280;62916;50.044;15.938;2023-07-24T10:17:45;98149.05;;;27.60;37.74
74466;BME280;62916;50.044;15.938;2023-07-24T10:20:17;98144.90;;;27.60;37.73
74466;BME280;62916;50.044;15.938;2023-07-24T10:22:49;98137.25;;;27.60;37.81
74466;BME280;62916;50.044;15.938;2023-07-24T10:25:30;98130.58;;;27.60;37.71
74466;BME280;62916;50.044;15.938;2023-07-24T10:28:06;98126.84;;;27.60;37.97
74466;BME280;62916;50.044;15.938;2023-07-24T10:30:40;98122.77;;;27.60;37.69
74466;BME280;62916;50.044;15.938;2023-07-24T10:33:13;98123.34;;;27.60;37.84
74466;BME280;62916;50.044;15.938;2023-07-24T10:35:49;98120.98;;;27.61;37.93
74466;BME280;62916;50.044;15.938;2023-07-24T10:38:34;98120.73;;;27.61;37.75
74466;BME280;62916;50.044;15.938;2023-07-24T10:41:09;98122.29;;;27.62;37.85
74466;BME280;62916;50.044;15.938;2023-07-24T10:43:45;98120.77;;;27.62;37.87
74466;BME280;62916;50.044;15.938;2023-07-24T10:46:19;98118.81;;;27.62;37.81
74466;BME280;62916;50.044;15.938;2023-07-24T10:48:50;98110.92;;;27.63;38.06
74466;BME280;62916;50.044;15.938;2023-07-24T10:51:22;98101.63;;;27.62;37.94
74466;BME280;62916;50.044;15.938;2023-07-24T10:53:53;98099.78;;;27.64;37.85
74466;BME280;62916;50.044;15.938;2023-07-24T10:56:24;98093.13;;;27.65;37.80
74466;BME280;62916;50.044;15.938;2023-07-24T10:58:56;98084.73;;;27.65;37.98
74466;BME280;62916;50.044;15.938;2023-07-24T11:01:27;98083.20;;;27.66;38.02
74466;BME280;62916;50.044;15.938;2023-07-24T11:03:59;98078.24;;;27.67;37.90
74466;BME280;62916;50.044;15.938;2023-07-24T11:06:31;98072.87;;;27.67;38.03
74466;BME280;62916;50.044;15.938;2023-07-24T11:09:02;98068.66;;;27.68;37.88
74466;BME280;62916;50.044;15.938;2023-07-24T11:11:34;98070.77;;;27.69;38.00
74466;BME280;62916;50.044;15.938;2023-07-24T11:14:13;98061.40;;;27.69;38.13
74466;BME280;62916;50.044;15.938;2023-07-24T11:16:50;98059.77;;;27.70;38.09
74466;BME280;62916;50.044;15.938;2023-07-24T11:19:25;98047.64;;;27.67;37.98
74466;BME280;62916;50.044;15.938;2023-07-24T11:21:56;98050.51;;;27.71;37.91
74466;BME280;62916;50.044;15.938;2023-07-24T11:24:28;98039.68;;;27.71;38.08
74466;BME280;62916;50.044;15.938;2023-07-24T11:26:59;98038.46;;;27.71;38.05
74466;BME280;62916;50.044;15.938;2023-07-24T11:29:31;98037.01;;;27.72;38.09
74466;BME280;62916;50.044;15.938;2023-07-24T11:32:05;98034.24;;;27.72;37.92
74466;BME280;62916;50.044;15.938;2023-07-24T11:34:36;98033.36;;;27.73;38.16
74466;BME280;62916;50.044;15.938;2023-07-24T11:37:08;98036.38;;;27.73;38.25
74466;BME280;62916;50.044;15.938;2023-07-24T11:39:39;98036.14;;;27.74;38.25
74466;BME280;62916;50.044;15.938;2023-07-24T11:42:10;98040.94;;;27.73;38.06
74466;BME280;62916;50.044;15.938;2023-07-24T11:44:41;98045.34;;;27.74;37.98
74466;BME280;62916;50.044;15.938;2023-07-24T11:47:12;98040.61;;;27.74;38.19
74466;BME280;62916;50.044;15.938;2023-07-24T11:49:43;98037.67;;;27.73;38.02
74466;BME280;62916;50.044;15.938;2023-07-24T11:52:17;98027.84;;;27.74;38.05
74466;BME280;62916;50.044;15.938;2023-07-24T11:54:57;98025.64;;;27.74;37.96
74466;BME280;62916;50.044;15.938;2023-07-24T11:57:30;98023.77;;;27.75;38.12
74466;BME280;62916;50.044;15.938;2023-07-24T12:00:02;98026.86;;;27.75;38.15
74466;BME280;62916;50.044;15.938;2023-07-24T12:02:34;98021.91;;;27.76;38.48
74466;BME280;62916;50.044;15.938;2023-07-24T12:05:07;98019.96;;;27.77;38.27
74466;BME280;62916;50.044;15.938;2023-07-24T12:07:38;98008.73;;;27.77;38.18
74466;BME280;62916;50.044;15.938;2023-07-24T12:10:09;97996.85;;;27.77;38.23
74466;BME280;62916;50.044;15.938;2023-07-24T12:12:44;98000.44;;;27.77;38.27
74466;BME280;62916;50.044;15.938;2023-07-24T12:15:16;97987.02;;;27.77;38.26
74466;BME280;62916;50.044;15.938;2023-07-24T12:17:48;98004.10;;;27.79;38.25
74466;BME280;62916;50.044;15.938;2023-07-24T12:20:19;97999.45;;;27.80;38.05
74466;BME280;62916;50.044;15.938;2023-07-24T12:22:50;97989.45;;;27.81;38.20
74466;BME280;62916;50.044;15.938;2023-07-24T12:25:21;97986.04;;;27.81;38.24
74466;BME280;62916;50.044;15.938;2023-07-24T12:27:52;97994.91;;;27.82;38.27
74466;BME280;62916;50.044;15.938;2023-07-24T12:30:23;97988.73;;;27.82;38.13
74466;BME280;62916;50.044;15.938;2023-07-24T12:32:54;97980.02;;;27.82;38.02
74466;BME280;62916;50.044;15.938;2023-07-24T12:35:25;97972.37;;;27.82;38.20
74466;BME280;62916;50.044;15.938;2023-07-24T12:37:56;97968.94;;;27.82;38.11
74466;BME280;62916;50.044;15.938;2023-07-24T12:40:27;97967.40;;;27.82;37.98
74466;BME280;62916;50.044;15.938;2023-07-24T12:42:58;97962.02;;;27.78;37.99
74466;BME280;62916;50.044;15.938;2023-07-24T12:45:29;97965.54;;;27.82;38.05
74466;BME280;62916;50.044;15.938;2023-07-24T12:48:00;97966.42;;;27.82;37.99
74466;BME280;62916;50.044;15.938;2023-07-24T12:50:33;97965.85;;;27.82;38.06
74466;BME280;62916;50.044;15.938;2023-07-24T12:53:03;97970.17;;;27.82;37.89
74466;BME280;62916;50.044;15.938;2023-07-24T12:55:39;97973.67;;;27.83;37.85
74466;BME280;62916;50.044;15.938;2023-07-24T12:58:10;97973.11;;;27.83;37.89
74466;BME280;62916;50.044;15.938;2023-07-24T13:00:40;97984.02;;;27.83;37.92
74466;BME280;62916;50.044;15.938;2023-07-24T13:03:11;97986.55;;;27.84;37.79
74466;BME280;62916;50.044;15.938;2023-07-24T13:05:42;97998.35;;;27.84;37.82
74466;BME280;62916;50.044;15.938;2023-07-24T13:08:14;98000.63;;;27.83;37.87
74466;BME280;62916;50.044;15.938;2023-07-24T13:10:47;97998.92;;;27.84;37.64
74466;BME280;62916;50.044;15.938;2023-07-24T13:13:18;97985.34;;;27.84;37.72